sensor_id;sensor_type;location;lat;lon;timestamp;pressure;altitude;pressure_sealevel;temperature;humidity
81641;BME280;74020;50.722;-1.944;2024-01-06T00:01:20;100649.10;;;7.03;92.14
81641;BME280;74020;50.722;-1.944;2024-01-06T00:03:45;100647.80;;;7.03;92.11
81641;BME280;74020;50.722;-1.944;2024-01-06T00:06:11;100654.19;;;7.03;92.27
81641;BME280;74020;50.722;-1.944;2024-01-06T00:08:36;100657.35;;;7.13;91.63
81641;BME280;74020;50.722;-1.944;2024-01-06T00:11:02;100664.07;;;7.22;91.15
81641;BME280;74020;50.722;-1.944;2024-01-06T00:13:27;100664.63;;;7.19;91.41
81641;BME280;74020;50.722;-1.944;2024-01-06T00:15:53;100668.08;;;7.18;91.64
81641;BME280;74020;50.722;-1.944;2024-01-06T00:18:18;100673.66;;;7.18;90.87
81641;BME280;74020;50.722;-1.944;2024-01-06T00:20:44;100667.67;;;6.95;92.11
81641;BME280;74020;50.722;-1.944;2024-01-06T00:23:09;100669.43;;;7.11;91.89
81641;BME280;74020;50.722;-1.944;2024-01-06T00:25:35;100669.94;;;7.14;91.49
81641;BME280;74020;50.722;-1.944;2024-01-06T00:28:00;100671.68;;;7.26;90.71
81641;BME280;74020;50.722;-1.944;2024-01-06T00:30:26;100672.35;;;7.13;90.89
81641;BME280;74020;50.722;-1.944;2024-01-06T00:32:51;100672.48;;;7.06;91.06
81641;BME280;74020;50.722;-1.944;2024-01-06T00:35:17;100672.45;;;6.87;91.81
81641;BME280;74020;50.722;-1.944;2024-01-06T00:37:42;100682.44;;;6.85;92.01
81641;BME280;74020;50.722;-1.944;2024-01-06T00:40:09;100682.16;;;6.87;91.82
81641;BME280;74020;50.722;-1.944;2024-01-06T00:42:34;100680.48;;;6.88;91.15
81641;BME280;74020;50.722;-1.944;2024-01-06T00:44:59;100678.55;;;6.85;91.77
81641;BME280;74020;50.722;-1.944;2024-01-06T00:47:24;100682.13;;;6.84;91.32
81641;BME280;74020;50.722;-1.944;2024-01-06T00:49:50;100687.69;;;6.71;92.25
81641;BME280;74020;50.722;-1.944;2024-01-06T00:52:15;100688.63;;;6.74;91.85
81641;BME280;74020;50.722;-1.944;2024-01-06T00:54:41;100691.17;;;6.69;91.90
81641;BME280;74020;50.722;-1.944;2024-01-06T00:57:07;100695.89;;;6.45;93.23
81641;BME280;74020;50.722;-1.944;2024-01-06T00:59:32;100699.34;;;6.41;93.20
81641;BME280;74020;50.722;-1.944;2024-01-06T01:01:57;100694.99;;;6.39;93.43
81641;BME280;74020;50.722;-1.944;2024-01-06T01:04:23;100692.41;;;6.38;93.66
81641;BME280;74020;50.722;-1.944;2024-01-06T01:06:49;100691.66;;;6.30;94.06
81641;BME280;74020;50.722;-1.944;2024-01-06T01:09:14;100694.27;;;6.30;94.11
81641;BME280;74020;50.722;-1.944;2024-01-06T01:11:40;100695.56;;;6.38;93.79
81641;BME280;74020;50.722;-1.944;2024-01-06T01:14:05;100701.57;;;6.30;94.19
81641;BME280;74020;50.722;-1.944;2024-01-06T01:16:31;100701.94;;;6.35;94.05
81641;BME280;74020;50.722;-1.944;2024-01-06T01:18:56;100704.01;;;6.29;94.09
81641;BME280;74020;50.722;-1.944;2024-01-06T01:21:22;100710.26;;;6.22;94.77
81641;BME280;74020;50.722;-1.944;2024-01-06T01:23:48;100708.75;;;6.37;94.34
81641;BME280;74020;50.722;-1.944;2024-01-06T01:26:13;100712.79;;;6.44;93.80
81641;BME280;74020;50.722;-1.944;2024-01-06T01:28:39;100715.24;;;6.41;93.84
81641;BME280;74020;50.722;-1.944;2024-01-06T01:31:04;100719.41;;;6.40;93.53
81641;BME280;74020;50.722;-1.944;2024-01-06T01:33:30;100720.57;;;6.40;93.55
81641;BME280;74020;50.722;-1.944;2024-01-06T01:35:56;100723.31;;;6.52;93.33
81641;BME280;74020;50.722;-1.944;2024-01-06T01:38:21;100731.25;;;6.52;92.85
81641;BME280;74020;50.722;-1.944;2024-01-06T01:40:46;100728.94;;;6.59;92.71
81641;BME280;74020;50.722;-1.944;2024-01-06T01:43:17;100727.11;;;6.68;92.15
81641;BME280;74020;50.722;-1.944;2024-01-06T01:45:37;100730.31;;;6.70;91.86
81641;BME280;74020;50.722;-1.944;2024-01-06T01:48:03;100735.66;;;6.69;91.45
81641;BME280;74020;50.722;-1.944;2024-01-06T01:50:28;100735.44;;;6.69;91.46
81641;BME280;74020;50.722;-1.944;2024-01-06T01:52:55;100738.16;;;6.64;91.95
81641;BME280;74020;50.722;-1.944;2024-01-06T01:55:20;100738.14;;;6.62;91.99
81641;BME280;74020;50.722;-1.944;2024-01-06T01:57:45;100742.12;;;6.68;91.81
81641;BME280;74020;50.722;-1.944;2024-01-06T02:00:12;100744.21;;;6.62;91.45
81641;BME280;74020;50.722;-1.944;2024-01-06T02:02:36;100744.74;;;6.68;91.47
81641;BME280;74020;50.722;-1.944;2024-01-06T02:05:02;100748.24;;;6.78;91.06
81641;BME280;74020;50.722;-1.944;2024-01-06T02:07:27;100748.56;;;6.75;91.03
81641;BME280;74020;50.722;-1.944;2024-01-06T02:09:52;100750.86;;;6.68;91.32
81641;BME280;74020;50.722;-1.944;2024-01-06T02:12:18;100752.82;;;6.62;91.20
81641;BME280;74020;50.722;-1.944;2024-01-06T02:14:43;100753.65;;;6.66;90.93
81641;BME280;74020;50.722;-1.944;2024-01-06T02:17:09;100749.73;;;6.46;91.78
81641;BME280;74020;50.722;-1.944;2024-01-06T02:19:35;100754.59;;;6.61;91.40
81641;BME280;74020;50.722;-1.944;2024-01-06T02:22:01;100754.60;;;6.59;91.06
81641;BME280;74020;50.722;-1.944;2024-01-06T02:24:26;100758.19;;;6.49;91.22
81641;BME280;74020;50.722;-1.944;2024-01-06T02:26:51;100756.26;;;6.47;91.55
81641;BME280;74020;50.722;-1.944;2024-01-06T02:29:17;100755.69;;;6.35;91.51
81641;BME280;74020;50.722;-1.944;2024-01-06T02:31:42;100755.52;;;6.23;92.26
81641;BME280;74020;50.722;-1.944;2024-01-06T02:34:08;100760.54;;;6.37;92.11
81641;BME280;74020;50.722;-1.944;2024-01-06T02:36:33;100766.02;;;6.17;92.55
81641;BME280;74020;50.722;-1.944;2024-01-06T02:38:59;100765.09;;;6.23;92.64
81641;BME280;74020;50.722;-1.944;2024-01-06T02:41:24;100762.86;;;6.29;92.50
81641;BME280;74020;50.722;-1.944;2024-01-06T02:43:50;100766.46;;;6.20;92.95
81641;BME280;74020;50.722;-1.944;2024-01-06T02:46:16;100774.17;;;6.08;93.38
81641;BME280;74020;50.722;-1.944;2024-01-06T02:48:41;100771.06;;;6.03;93.36
81641;BME280;74020;50.722;-1.944;2024-01-06T02:51:07;100777.41;;;6.02;93.76
81641;BME280;74020;50.722;-1.944;2024-01-06T02:53:32;100773.03;;;6.01;93.82
81641;BME280;74020;50.722;-1.944;2024-01-06T02:55:58;100779.67;;;6.00;93.75
81641;BME280;74020;50.722;-1.944;2024-01-06T02:58:23;100784.52;;;5.95;94.29
81641;BME280;74020;50.722;-1.944;2024-01-06T03:00:49;100777.58;;;5.99;94.27
81641;BME280;74020;50.722;-1.944;2024-01-06T03:03:14;100783.44;;;5.91;94.35
81641;BME280;74020;50.722;-1.944;2024-01-06T03:05:40;100782.15;;;5.94;94.10
81641;BME280;74020;50.722;-1.944;2024-01-06T03:08:06;100786.74;;;5.92;94.11
81641;BME280;74020;50.722;-1.944;2024-01-06T03:10:31;100788.68;;;5.95;93.95
81641;BME280;74020;50.722;-1.944;2024-01-06T03:12:57;100792.04;;;5.80;94.66
81641;BME280;74020;50.722;-1.944;2024-01-06T03:15:22;100799.13;;;5.91;94.17
81641;BME280;74020;50.722;-1.944;2024-01-06T03:17:48;100798.31;;;5.97;94.15
81641;BME280;74020;50.722;-1.944;2024-01-06T03:20:14;100796.03;;;5.97;94.05
81641;BME280;74020;50.722;-1.944;2024-01-06T03:22:39;100800.35;;;6.07;93.70
81641;BME280;74020;50.722;-1.944;2024-01-06T03:25:05;100805.01;;;6.04;93.95
81641;BME280;74020;50.722;-1.944;2024-01-06T03:27:30;100802.76;;;6.13;93.50
81641;BME280;74020;50.722;-1.944;2024-01-06T03:29:56;100806.89;;;6.10;93.34
81641;BME280;74020;50.722;-1.944;2024-01-06T03:32:21;100808.14;;;6.16;93.13
81641;BME280;74020;50.722;-1.944;2024-01-06T03:34:47;100812.30;;;6.12;93.16
81641;BME280;74020;50.722;-1.944;2024-01-06T03:37:12;100815.02;;;6.11;93.25
81641;BME280;74020;50.722;-1.944;2024-01-06T03:39:38;100818.16;;;6.17;93.23
81641;BME280;74020;50.722;-1.944;2024-01-06T03:42:04;100818.52;;;5.96;94.62
81641;BME280;74020;50.722;-1.944;2024-01-06T03:44:29;100825.09;;;5.90;94.96
81641;BME280;74020;50.722;-1.944;2024-01-06T03:46:55;100828.90;;;6.02;93.98
81641;BME280;74020;50.722;-1.944;2024-01-06T03:49:20;100829.74;;;6.16;93.09
81641;BME280;74020;50.722;-1.944;2024-01-06T03:51:46;100831.84;;;6.18;93.05
81641;BME280;74020;50.722;-1.944;2024-01-06T03:54:11;100832.60;;;6.02;92.93
81641;BME280;74020;50.722;-1.944;2024-01-06T03:56:37;100834.31;;;6.05;93.10
81641;BME280;74020;50.722;-1.944;2024-01-06T03:59:02;100841.64;;;6.00;93.44
81641;BME280;74020;50.722;-1.944;2024-01-06T04:01:28;100838.07;;;5.97;93.73
81641;BME280;74020;50.722;-1.944;2024-01-06T04:03:54;100841.39;;;6.06;93.50
81641;BME280;74020;50.722;-1.944;2024-01-06T04:06:19;100846.96;;;5.89;94.10
81641;BME280;74020;50.722;-1.944;2024-01-06T04:08:45;100852.73;;;5.82;94.21
81641;BME280;74020;50.722;-1.944;2024-01-06T04:11:10;100855.52;;;5.82;93.97
81641;BME280;74020;50.722;-1.944;2024-01-06T04:13:35;100855.83;;;5.89;93.74
81641;BME280;74020;50.722;-1.944;2024-01-06T04:16:01;100858.43;;;5.84;93.83
81641;BME280;74020;50.722;-1.944;2024-01-06T04:18:27;100859.45;;;5.76;94.15
81641;BME280;74020;50.722;-1.944;2024-01-06T04:20:52;100865.49;;;5.76;93.91
81641;BME280;74020;50.722;-1.944;2024-01-06T04:23:18;100871.61;;;5.77;93.85
81641;BME280;74020;50.722;-1.944;2024-01-06T04:25:43;100870.59;;;5.75;93.76
81641;BME280;74020;50.722;-1.944;2024-01-06T04:28:09;100873.93;;;5.79;93.67
81641;BME280;74020;50.722;-1.944;2024-01-06T04:30:34;100871.74;;;5.79;93.91
81641;BME280;74020;50.722;-1.944;2024-01-06T04:33:00;100878.73;;;5.78;94.03
81641;BME280;74020;50.722;-1.944;2024-01-06T04:35:26;100874.13;;;5.68;94.17
81641;BME280;74020;50.722;-1.944;2024-01-06T04:37:55;100877.76;;;5.65;94.61
81641;BME280;74020;50.722;-1.944;2024-01-06T04:40:17;100876.44;;;5.58;94.82
81641;BME280;74020;50.722;-1.944;2024-01-06T04:42:42;100876.71;;;5.62;94.52
81641;BME280;74020;50.722;-1.944;2024-01-06T04:45:09;100876.76;;;5.66;94.77
81641;BME280;74020;50.722;-1.944;2024-01-06T04:47:34;100876.59;;;5.61;94.47
81641;BME280;74020;50.722;-1.944;2024-01-06T04:49:59;100878.13;;;5.69;94.55
81641;BME280;74020;50.722;-1.944;2024-01-06T04:52:25;100876.80;;;5.68;94.62
81641;BME280;74020;50.722;-1.944;2024-01-06T04:54:50;100880.26;;;5.60;94.97
81641;BME280;74020;50.722;-1.944;2024-01-06T04:57:16;100887.45;;;5.56;94.75
81641;BME280;74020;50.722;-1.944;2024-01-06T04:59:41;100882.67;;;5.52;94.77
81641;BME280;74020;50.722;-1.944;2024-01-06T05:02:07;100881.54;;;5.33;95.26
81641;BME280;74020;50.722;-1.944;2024-01-06T05:04:33;100883.47;;;5.46;95.32
81641;BME280;74020;50.722;-1.944;2024-01-06T05:06:58;100886.89;;;5.44;95.15
81641;BME280;74020;50.722;-1.944;2024-01-06T05:09:24;100886.36;;;5.44;94.50
81641;BME280;74020;50.722;-1.944;2024-01-06T05:11:49;100889.74;;;5.48;94.79
81641;BME280;74020;50.722;-1.944;2024-01-06T05:14:15;100896.05;;;5.48;94.52
81641;BME280;74020;50.722;-1.944;2024-01-06T05:16:40;100892.75;;;5.30;94.56
81641;BME280;74020;50.722;-1.944;2024-01-06T05:19:06;100901.99;;;5.42;94.75
81641;BME280;74020;50.722;-1.944;2024-01-06T05:21:32;100902.29;;;5.36;94.85
81641;BME280;74020;50.722;-1.944;2024-01-06T05:23:57;100908.18;;;5.37;95.02
81641;BME280;74020;50.722;-1.944;2024-01-06T05:26:23;100914.86;;;5.28;95.15
81641;BME280;74020;50.722;-1.944;2024-01-06T05:28:48;100912.39;;;5.25;95.22
81641;BME280;74020;50.722;-1.944;2024-01-06T05:31:14;100915.38;;;5.31;94.78
81641;BME280;74020;50.722;-1.944;2024-01-06T05:33:39;100917.16;;;5.15;95.71
81641;BME280;74020;50.722;-1.944;2024-01-06T05:36:05;100922.06;;;5.25;95.01
81641;BME280;74020;50.722;-1.944;2024-01-06T05:38:30;100925.23;;;5.26;95.08
81641;BME280;74020;50.722;-1.944;2024-01-06T05:40:56;100929.97;;;5.24;94.84
81641;BME280;74020;50.722;-1.944;2024-01-06T05:43:21;100928.89;;;5.33;94.26
81641;BME280;74020;50.722;-1.944;2024-01-06T05:45:47;100932.99;;;5.34;94.35
81641;BME280;74020;50.722;-1.944;2024-01-06T05:48:13;100935.80;;;5.22;94.24
81641;BME280;74020;50.722;-1.944;2024-01-06T05:50:38;100939.29;;;5.21;93.79
81641;BME280;74020;50.722;-1.944;2024-01-06T05:53:04;100943.59;;;5.22;94.28
81641;BME280;74020;50.722;-1.944;2024-01-06T05:55:29;100947.81;;;5.27;93.95
81641;BME280;74020;50.722;-1.944;2024-01-06T05:57:55;100949.56;;;5.21;93.90
81641;BME280;74020;50.722;-1.944;2024-01-06T06:00:21;100955.34;;;5.14;94.23
81641;BME280;74020;50.722;-1.944;2024-01-06T06:02:46;100957.34;;;5.12;94.39
81641;BME280;74020;50.722;-1.944;2024-01-06T06:05:12;100959.14;;;5.12;94.38
81641;BME280;74020;50.722;-1.944;2024-01-06T06:07:38;100965.48;;;5.15;94.62
81641;BME280;74020;50.722;-1.944;2024-01-06T06:10:04;100969.25;;;5.16;94.40
81641;BME280;74020;50.722;-1.944;2024-01-06T06:12:29;100972.85;;;5.12;94.82
81641;BME280;74020;50.722;-1.944;2024-01-06T06:14:54;100974.16;;;5.01;95.07
81641;BME280;74020;50.722;-1.944;2024-01-06T06:17:21;100978.64;;;4.94;95.49
81641;BME280;74020;50.722;-1.944;2024-01-06T06:19:46;100986.87;;;4.85;95.72
81641;BME280;74020;50.722;-1.944;2024-01-06T06:22:11;100984.97;;;4.87;96.02
81641;BME280;74020;50.722;-1.944;2024-01-06T06:24:37;100985.33;;;4.84;96.56
81641;BME280;74020;50.722;-1.944;2024-01-06T06:27:02;100988.12;;;4.81;96.77
81641;BME280;74020;50.722;-1.944;2024-01-06T06:29:28;100994.18;;;4.72;96.80
81641;BME280;74020;50.722;-1.944;2024-01-06T06:31:54;100995.94;;;4.65;97.29
81641;BME280;74020;50.722;-1.944;2024-01-06T06:34:19;101002.31;;;4.68;97.57
81641;BME280;74020;50.722;-1.944;2024-01-06T06:36:45;101008.19;;;4.65;97.79
81641;BME280;74020;50.722;-1.944;2024-01-06T06:39:11;101010.45;;;4.61;97.66
81641;BME280;74020;50.722;-1.944;2024-01-06T06:41:36;101009.71;;;4.56;97.78
81641;BME280;74020;50.722;-1.944;2024-01-06T06:44:02;101012.25;;;4.57;97.59
81641;BME280;74020;50.722;-1.944;2024-01-06T06:46:27;101020.98;;;4.55;97.38
81641;BME280;74020;50.722;-1.944;2024-01-06T06:48:53;101025.77;;;4.56;97.80
81641;BME280;74020;50.722;-1.944;2024-01-06T06:51:18;101030.28;;;4.54;97.68
81641;BME280;74020;50.722;-1.944;2024-01-06T06:53:44;101034.83;;;4.58;97.55
81641;BME280;74020;50.722;-1.944;2024-01-06T06:56:10;101043.90;;;4.60;97.25
81641;BME280;74020;50.722;-1.944;2024-01-06T06:58:35;101046.24;;;4.51;97.26
81641;BME280;74020;50.722;-1.944;2024-01-06T07:01:01;101054.93;;;4.53;97.64
81641;BME280;74020;50.722;-1.944;2024-01-06T07:03:27;101053.91;;;4.53;97.52
81641;BME280;74020;50.722;-1.944;2024-01-06T07:05:52;101054.58;;;4.43;97.71
81641;BME280;74020;50.722;-1.944;2024-01-06T07:08:18;101050.49;;;4.48;97.05
81641;BME280;74020;50.722;-1.944;2024-01-06T07:10:44;101059.68;;;4.50;97.26
81641;BME280;74020;50.722;-1.944;2024-01-06T07:13:09;101063.71;;;4.42;97.41
81641;BME280;74020;50.722;-1.944;2024-01-06T07:15:35;101072.32;;;4.52;97.07
81641;BME280;74020;50.722;-1.944;2024-01-06T07:18:00;101074.43;;;4.48;96.95
81641;BME280;74020;50.722;-1.944;2024-01-06T07:20:26;101077.35;;;4.50;96.52
81641;BME280;74020;50.722;-1.944;2024-01-06T07:22:51;101085.36;;;4.48;96.54
81641;BME280;74020;50.722;-1.944;2024-01-06T07:25:17;101094.16;;;4.53;96.61
81641;BME280;74020;50.722;-1.944;2024-01-06T07:27:42;101092.96;;;4.39;96.34
81641;BME280;74020;50.722;-1.944;2024-01-06T07:30:10;101103.92;;;4.48;96.63
81641;BME280;74020;50.722;-1.944;2024-01-06T07:32:34;101103.81;;;4.51;96.74
81641;BME280;74020;50.722;-1.944;2024-01-06T07:34:59;101107.69;;;4.49;96.47
81641;BME280;74020;50.722;-1.944;2024-01-06T07:37:25;101110.69;;;4.48;96.29
81641;BME280;74020;50.722;-1.944;2024-01-06T07:39:51;101111.50;;;4.51;96.36
81641;BME280;74020;50.722;-1.944;2024-01-06T07:42:16;101118.27;;;4.47;96.17
81641;BME280;74020;50.722;-1.944;2024-01-06T07:44:42;101119.52;;;4.44;96.37
81641;BME280;74020;50.722;-1.944;2024-01-06T07:47:08;101123.01;;;4.46;96.33
81641;BME280;74020;50.722;-1.944;2024-01-06T07:49:33;101125.91;;;4.38;96.42
81641;BME280;74020;50.722;-1.944;2024-01-06T07:51:59;101126.11;;;4.39;96.61
81641;BME280;74020;50.722;-1.944;2024-01-06T07:54:24;101131.07;;;4.37;96.58
81641;BME280;74020;50.722;-1.944;2024-01-06T07:56:50;101135.67;;;4.31;96.82
81641;BME280;74020;50.722;-1.944;2024-01-06T07:59:16;101135.79;;;4.30;96.79
81641;BME280;74020;50.722;-1.944;2024-01-06T08:01:43;101139.43;;;4.27;96.77
81641;BME280;74020;50.722;-1.944;2024-01-06T08:04:07;101150.86;;;4.20;96.92
81641;BME280;74020;50.722;-1.944;2024-01-06T08:06:33;101156.24;;;4.27;97.06
81641;BME280;74020;50.722;-1.944;2024-01-06T08:08:58;101155.51;;;4.26;97.13
81641;BME280;74020;50.722;-1.944;2024-01-06T08:11:24;101156.91;;;4.24;97.08
81641;BME280;74020;50.722;-1.944;2024-01-06T08:13:52;101159.97;;;4.28;97.04
81641;BME280;74020;50.722;-1.944;2024-01-06T08:16:15;101162.28;;;4.16;96.82
81641;BME280;74020;50.722;-1.944;2024-01-06T08:18:41;101166.85;;;4.21;96.61
81641;BME280;74020;50.722;-1.944;2024-01-06T08:21:07;101175.72;;;4.27;96.84
81641;BME280;74020;50.722;-1.944;2024-01-06T08:23:32;101176.19;;;4.27;97.08
81641;BME280;74020;50.722;-1.944;2024-01-06T08:25:58;101176.60;;;4.26;96.80
81641;BME280;74020;50.722;-1.944;2024-01-06T08:28:26;101180.80;;;4.28;96.80
81641;BME280;74020;50.722;-1.944;2024-01-06T08:30:49;101187.42;;;4.35;96.62
81641;BME280;74020;50.722;-1.944;2024-01-06T08:33:15;101195.30;;;4.24;96.79
81641;BME280;74020;50.722;-1.944;2024-01-06T08:35:40;101198.13;;;4.28;96.79
81641;BME280;74020;50.722;-1.944;2024-01-06T08:38:06;101200.61;;;4.19;97.08
81641;BME280;74020;50.722;-1.944;2024-01-06T08:40:32;101203.89;;;4.20;97.14
81641;BME280;74020;50.722;-1.944;2024-01-06T08:42:57;101211.90;;;4.10;97.59
81641;BME280;74020;50.722;-1.944;2024-01-06T08:45:23;101211.52;;;4.29;96.94
81641;BME280;74020;50.722;-1.944;2024-01-06T08:47:49;101210.70;;;4.21;96.96
81641;BME280;74020;50.722;-1.944;2024-01-06T08:50:14;101213.57;;;4.24;96.91
81641;BME280;74020;50.722;-1.944;2024-01-06T08:52:40;101221.95;;;4.23;96.58
81641;BME280;74020;50.722;-1.944;2024-01-06T08:55:06;101226.47;;;4.08;97.20
81641;BME280;74020;50.722;-1.944;2024-01-06T08:57:31;101233.52;;;4.11;98.01
81641;BME280;74020;50.722;-1.944;2024-01-06T08:59:57;101232.46;;;4.20;97.33
81641;BME280;74020;50.722;-1.944;2024-01-06T09:02:23;101235.06;;;4.28;97.15
81641;BME280;74020;50.722;-1.944;2024-01-06T09:04:48;101243.34;;;4.24;96.60
81641;BME280;74020;50.722;-1.944;2024-01-06T09:07:14;101245.66;;;4.27;96.82
81641;BME280;74020;50.722;-1.944;2024-01-06T09:09:39;101251.96;;;4.19;97.65
81641;BME280;74020;50.722;-1.944;2024-01-06T09:12:06;101256.98;;;4.35;96.77
81641;BME280;74020;50.722;-1.944;2024-01-06T09:14:31;101259.27;;;4.30;96.85
81641;BME280;74020;50.722;-1.944;2024-01-06T09:16:56;101265.35;;;4.29;97.01
81641;BME280;74020;50.722;-1.944;2024-01-06T09:19:22;101271.93;;;4.45;96.19
81641;BME280;74020;50.722;-1.944;2024-01-06T09:21:48;101270.02;;;4.50;95.59
81641;BME280;74020;50.722;-1.944;2024-01-06T09:24:13;101273.09;;;4.46;96.56
81641;BME280;74020;50.722;-1.944;2024-01-06T09:26:39;101279.62;;;4.43;96.11
81641;BME280;74020;50.722;-1.944;2024-01-06T09:29:05;101274.80;;;4.34;97.32
81641;BME280;74020;50.722;-1.944;2024-01-06T09:31:30;101282.92;;;4.53;96.18
81641;BME280;74020;50.722;-1.944;2024-01-06T09:33:59;101286.72;;;4.51;96.41
81641;BME280;74020;50.722;-1.944;2024-01-06T09:36:21;101288.88;;;4.67;95.81
81641;BME280;74020;50.722;-1.944;2024-01-06T09:38:47;101293.39;;;4.66;95.59
81641;BME280;74020;50.722;-1.944;2024-01-06T09:41:13;101294.56;;;4.70;95.58
81641;BME280;74020;50.722;-1.944;2024-01-06T09:43:38;101302.91;;;4.80;95.37
81641;BME280;74020;50.722;-1.944;2024-01-06T09:46:10;101300.42;;;4.95;94.47
81641;BME280;74020;50.722;-1.944;2024-01-06T09:48:30;101306.28;;;4.97;94.50
81641;BME280;74020;50.722;-1.944;2024-01-06T09:50:56;101309.19;;;4.88;94.94
81641;BME280;74020;50.722;-1.944;2024-01-06T09:53:21;101309.55;;;4.99;94.34
81641;BME280;74020;50.722;-1.944;2024-01-06T09:55:47;101312.59;;;5.06;94.03
81641;BME280;74020;50.722;-1.944;2024-01-06T09:58:12;101317.29;;;5.12;93.90
81641;BME280;74020;50.722;-1.944;2024-01-06T10:00:38;101320.17;;;5.26;93.12
81641;BME280;74020;50.722;-1.944;2024-01-06T10:03:04;101326.39;;;5.27;93.02
81641;BME280;74020;50.722;-1.944;2024-01-06T10:05:29;101324.88;;;5.29;93.03
81641;BME280;74020;50.722;-1.944;2024-01-06T10:07:55;101327.72;;;5.38;92.80
81641;BME280;74020;50.722;-1.944;2024-01-06T10:10:22;101328.83;;;5.48;92.31
81641;BME280;74020;50.722;-1.944;2024-01-06T10:12:46;101327.75;;;5.46;92.33
81641;BME280;74020;50.722;-1.944;2024-01-06T10:15:12;101325.09;;;5.57;91.69
81641;BME280;74020;50.722;-1.944;2024-01-06T10:17:37;101331.89;;;5.56;91.92
81641;BME280;74020;50.722;-1.944;2024-01-06T10:20:03;101333.90;;;5.55;93.11
81641;BME280;74020;50.722;-1.944;2024-01-06T10:22:28;101330.95;;;5.66;92.25
81641;BME280;74020;50.722;-1.944;2024-01-06T10:24:55;101335.02;;;5.77;91.80
81641;BME280;74020;50.722;-1.944;2024-01-06T10:27:19;101332.61;;;5.78;92.05
81641;BME280;74020;50.722;-1.944;2024-01-06T10:29:45;101336.29;;;5.74;92.52
81641;BME280;74020;50.722;-1.944;2024-01-06T10:32:10;101335.56;;;5.73;93.10
81641;BME280;74020;50.722;-1.944;2024-01-06T10:34:37;101333.26;;;5.84;92.38
81641;BME280;74020;50.722;-1.944;2024-01-06T10:37:01;101332.34;;;5.82;92.38
81641;BME280;74020;50.722;-1.944;2024-01-06T10:39:27;101328.71;;;5.80;92.82
81641;BME280;74020;50.722;-1.944;2024-01-06T10:41:53;101332.37;;;5.94;91.78
81641;BME280;74020;50.722;-1.944;2024-01-06T10:44:19;101338.28;;;5.86;92.30
81641;BME280;74020;50.722;-1.944;2024-01-06T10:46:44;101337.23;;;5.99;91.93
81641;BME280;74020;50.722;-1.944;2024-01-06T10:49:09;101335.02;;;5.92;91.93
81641;BME280;74020;50.722;-1.944;2024-01-06T10:51:36;101337.78;;;5.93;92.50
81641;BME280;74020;50.722;-1.944;2024-01-06T10:54:01;101344.43;;;5.92;92.43
81641;BME280;74020;50.722;-1.944;2024-01-06T10:56:26;101342.24;;;6.03;91.82
81641;BME280;74020;50.722;-1.944;2024-01-06T10:58:53;101341.30;;;6.10;91.31
81641;BME280;74020;50.722;-1.944;2024-01-06T11:01:21;101345.36;;;6.13;91.05
81641;BME280;74020;50.722;-1.944;2024-01-06T11:03:43;101346.25;;;6.16;91.24
81641;BME280;74020;50.722;-1.944;2024-01-06T11:06:09;101343.89;;;6.21;90.27
81641;BME280;74020;50.722;-1.944;2024-01-06T11:08:50;101346.79;;;6.18;91.19
81641;BME280;74020;50.722;-1.944;2024-01-06T11:10:59;101346.59;;;6.24;90.66
81641;BME280;74020;50.722;-1.944;2024-01-06T11:13:25;101346.57;;;6.28;89.46
81641;BME280;74020;50.722;-1.944;2024-01-06T11:15:51;101346.37;;;6.32;88.86
81641;BME280;74020;50.722;-1.944;2024-01-06T11:18:31;101348.51;;;6.37;88.03
81641;BME280;74020;50.722;-1.944;2024-01-06T11:23:18;101352.36;;;6.57;87.22
81641;BME280;74020;50.722;-1.944;2024-01-06T11:25:33;101352.06;;;6.54;87.62
81641;BME280;74020;50.722;-1.944;2024-01-06T11:27:58;101351.43;;;6.50;87.56
81641;BME280;74020;50.722;-1.944;2024-01-06T11:30:25;101352.03;;;6.67;86.16
81641;BME280;74020;50.722;-1.944;2024-01-06T11:32:51;101354.81;;;6.69;86.48
81641;BME280;74020;50.722;-1.944;2024-01-06T11:35:15;101356.34;;;6.61;87.11
81641;BME280;74020;50.722;-1.944;2024-01-06T11:37:51;101357.17;;;6.60;87.24
81641;BME280;74020;50.722;-1.944;2024-01-06T11:40:09;101358.07;;;6.65;87.06
81641;BME280;74020;50.722;-1.944;2024-01-06T11:42:33;101358.14;;;6.63;87.26
81641;BME280;74020;50.722;-1.944;2024-01-06T11:45:02;101359.15;;;6.69;86.37
81641;BME280;74020;50.722;-1.944;2024-01-06T11:47:22;101354.91;;;6.79;85.49
81641;BME280;74020;50.722;-1.944;2024-01-06T11:49:52;101353.73;;;6.86;84.92
81641;BME280;74020;50.722;-1.944;2024-01-06T11:52:14;101349.41;;;6.91;85.73
81641;BME280;74020;50.722;-1.944;2024-01-06T11:54:40;101349.06;;;6.92;85.85
81641;BME280;74020;50.722;-1.944;2024-01-06T11:57:05;101337.70;;;6.99;85.00
81641;BME280;74020;50.722;-1.944;2024-01-06T11:59:30;101344.58;;;6.72;86.19
81641;BME280;74020;50.722;-1.944;2024-01-06T12:01:56;101335.14;;;6.95;84.64
81641;BME280;74020;50.722;-1.944;2024-01-06T12:04:21;101340.86;;;7.10;84.10
81641;BME280;74020;50.722;-1.944;2024-01-06T12:06:47;101339.78;;;7.11;84.48
81641;BME280;74020;50.722;-1.944;2024-01-06T12:09:13;101341.74;;;7.25;83.60
81641;BME280;74020;50.722;-1.944;2024-01-06T12:11:38;101347.51;;;7.17;83.83
81641;BME280;74020;50.722;-1.944;2024-01-06T12:14:03;101339.89;;;7.25;83.64
81641;BME280;74020;50.722;-1.944;2024-01-06T12:16:29;101344.18;;;7.34;82.42
81641;BME280;74020;50.722;-1.944;2024-01-06T12:18:55;101336.64;;;7.42;82.31
81641;BME280;74020;50.722;-1.944;2024-01-06T12:21:20;101339.67;;;7.36;83.58
81641;BME280;74020;50.722;-1.944;2024-01-06T12:23:46;101341.28;;;7.47;81.65
81641;BME280;74020;50.722;-1.944;2024-01-06T12:26:11;101340.74;;;7.33;82.43
81641;BME280;74020;50.722;-1.944;2024-01-06T12:28:37;101342.66;;;7.48;81.80
81641;BME280;74020;50.722;-1.944;2024-01-06T12:31:04;101340.69;;;7.50;81.58
81641;BME280;74020;50.722;-1.944;2024-01-06T12:33:28;101336.81;;;7.28;82.65
81641;BME280;74020;50.722;-1.944;2024-01-06T12:35:53;101344.88;;;7.35;80.92
81641;BME280;74020;50.722;-1.944;2024-01-06T12:38:20;101341.23;;;7.33;80.98
81641;BME280;74020;50.722;-1.944;2024-01-06T12:40:46;101346.41;;;7.29;80.84
81641;BME280;74020;50.722;-1.944;2024-01-06T12:43:10;101345.97;;;7.38;80.47